Time;durP1;ratioP1;P1;durP2;ratioP2;P2;SDS_P1;SDS_P2;PMS_P1;PMS_P2;Temp;Humidity;BMP_temperature;BMP_pressure;BME280_temperature;BME280_humidity;BME280_pressure;Samples;Min_cycle;Max_cycle;Signal;HPM_P1;HPM_P2
2022/02/22 00:02:34;;;;;;;6.23;1.40;;;;;;;;;;6116807;23;20185;-87
2022/02/22 00:05:40;;;;;;;3.60;0.87;;;;;;;;;;6117383;23;20204;-87
2022/02/22 00:08:51;;;;;;;2.53;1.10;;;;;;;;;;6119561;23;20192;-86
2022/02/22 00:11:56;;;;;;;3.73;0.83;;;;;;;;;;6140732;23;20249;-87
2022/02/22 00:15:02;;;;;;;1.70;1.00;;;;;;;;;;6133948;23;20201;-87
2022/02/22 00:18:09;;;;;;;3.37;0.97;;;;;;;;;;6117151;23;20244;-88
2022/02/22 00:21:15;;;;;;;2.50;0.80;;;;;;;;;;6116727;23;20182;-88
2022/02/22 00:24:28;;;;;;;2.63;1.20;;;;;;;;;;6116569;23;20185;-86
2022/02/22 00:27:38;;;;;;;3.43;1.10;;;;;;;;;;6116265;23;20201;-87
2022/02/22 00:30:52;;;;;;;4.67;1.30;;;;;;;;;;6116814;23;20173;-87
2022/02/22 00:34:04;;;;;;;4.33;1.43;;;;;;;;;;6133338;23;20258;-87
2022/02/22 00:37:17;;;;;;;7.97;2.10;;;;;;;;;;6116375;23;20177;-88
2022/02/22 00:43:50;;;;;;;6.03;1.60;;;;;;;;;;6115564;23;20249;-87
2022/02/22 00:47:02;;;;;;;5.87;1.70;;;;;;;;;;6115648;23;20224;-87
2022/02/22 00:50:10;;;;;;;7.23;1.87;;;;;;;;;;6132088;23;20176;-87
2022/02/22 00:53:43;;;;;;;6.87;1.53;;;;;;;;;;6115348;23;20173;-88
2022/02/22 00:56:53;;;;;;;8.13;1.60;;;;;;;;;;6115560;23;20193;-87
2022/02/22 00:59:58;;;;;;;4.87;2.00;;;;;;;;;;6140986;23;20219;-88
2022/02/22 01:03:11;;;;;;;7.90;1.73;;;;;;;;;;6144942;23;20208;-87
2022/02/22 01:06:21;;;;;;;9.17;1.67;;;;;;;;;;6144389;23;20216;-87
2022/02/22 01:09:27;;;;;;;8.47;1.37;;;;;;;;;;6144155;23;20196;-86
2022/02/22 01:12:34;;;;;;;10.40;1.70;;;;;;;;;;6145166;23;20530;-87
2022/02/22 01:15:43;;;;;;;7.90;1.67;;;;;;;;;;6145017;23;20219;-87
2022/02/22 01:18:48;;;;;;;4.97;1.80;;;;;;;;;;6144780;23;20172;-87
2022/02/22 01:22:00;;;;;;;11.33;1.90;;;;;;;;;;6144155;23;20240;-87
2022/02/22 01:25:09;;;;;;;7.30;1.87;;;;;;;;;;6144369;23;20180;-87
2022/02/22 01:28:17;;;;;;;7.20;2.30;;;;;;;;;;6144016;23;20342;-86
2022/02/22 01:31:34;;;;;;;8.23;2.00;;;;;;;;;;6144780;23;20176;-87
2022/02/22 01:34:41;;;;;;;10.50;1.83;;;;;;;;;;6146389;23;20200;-88
2022/02/22 01:37:50;;;;;;;9.87;2.10;;;;;;;;;;6149853;23;20176;-87
2022/02/22 01:41:01;;;;;;;15.03;2.20;;;;;;;;;;6144720;23;20173;-88
2022/02/22 01:44:08;;;;;;;11.57;2.43;;;;;;;;;;6144524;23;20180;-87
2022/02/22 01:47:20;;;;;;;6.53;2.17;;;;;;;;;;6144676;23;20262;-88
2022/02/22 01:50:45;;;;;;;7.17;2.03;;;;;;;;;;6162935;23;20242;-87
2022/02/22 01:53:52;;;;;;;10.03;2.07;;;;;;;;;;6144256;23;20238;-86
2022/02/22 01:56:57;;;;;;;6.33;2.00;;;;;;;;;;6145510;23;20192;-86
2022/02/22 02:00:10;;;;;;;5.93;2.27;;;;;;;;;;6145230;23;20211;-87
2022/02/22 02:03:20;;;;;;;5.10;1.80;;;;;;;;;;6145728;23;20577;-86
2022/02/22 02:06:25;;;;;;;11.23;2.20;;;;;;;;;;6144855;23;20622;-88
2022/02/22 02:09:32;;;;;;;5.60;1.83;;;;;;;;;;6147880;23;20176;-86
2022/02/22 02:12:38;;;;;;;7.33;2.10;;;;;;;;;;6163615;23;20176;-87
2022/02/22 02:15:45;;;;;;;6.90;2.13;;;;;;;;;;6163921;23;20232;-87
2022/02/22 02:18:51;;;;;;;7.67;2.60;;;;;;;;;;6153839;23;20562;-87
2022/02/22 02:22:01;;;;;;;9.43;2.30;;;;;;;;;;6144594;23;20176;-88
2022/02/22 02:25:07;;;;;;;9.50;2.33;;;;;;;;;;6144413;23;20180;-87
2022/02/22 02:28:12;;;;;;;14.67;2.73;;;;;;;;;;6161832;23;20204;-88
2022/02/22 02:31:18;;;;;;;14.47;2.47;;;;;;;;;;6162132;23;20176;-88
2022/02/22 02:34:25;;;;;;;7.73;2.20;;;;;;;;;;6145931;23;20180;-86
2022/02/22 02:37:32;;;;;;;12.93;2.50;;;;;;;;;;6146930;23;20371;-87
2022/02/22 02:40:41;;;;;;;10.60;2.30;;;;;;;;;;6161948;23;20304;-86
2022/02/22 02:43:47;;;;;;;7.37;2.53;;;;;;;;;;6145665;23;20412;-87
2022/02/22 02:46:53;;;;;;;4.63;2.00;;;;;;;;;;6143718;23;20248;-87
2022/02/22 02:50:00;;;;;;;5.87;2.23;;;;;;;;;;6144710;23;20549;-88
2022/02/22 02:53:07;;;;;;;11.80;3.03;;;;;;;;;;6145007;23;20169;-87
2022/02/22 02:56:13;;;;;;;7.90;2.70;;;;;;;;;;6145562;23;20174;-88
2022/02/22 02:59:18;;;;;;;10.30;2.17;;;;;;;;;;6145702;23;20646;-88
2022/02/22 03:02:23;;;;;;;8.17;1.90;;;;;;;;;;6145985;23;20251;-89
2022/02/22 03:05:28;;;;;;;4.73;2.00;;;;;;;;;;6149542;23;20247;-89
2022/02/22 03:08:36;;;;;;;8.43;2.50;;;;;;;;;;6165317;23;20184;-87
2022/02/22 03:11:42;;;;;;;9.03;2.37;;;;;;;;;;6212374;23;20215;-89
2022/02/22 03:14:49;;;;;;;8.10;2.50;;;;;;;;;;6212455;23;20180;-88
2022/02/22 03:17:55;;;;;;;7.60;2.10;;;;;;;;;;6212383;23;20171;-89
2022/02/22 03:21:00;;;;;;;9.23;1.77;;;;;;;;;;6194014;23;20192;-89
2022/02/22 03:24:08;;;;;;;6.33;1.93;;;;;;;;;;6212439;23;20183;-87
2022/02/22 03:27:15;;;;;;;13.97;2.43;;;;;;;;;;6212707;23;20187;-89
2022/02/22 03:30:21;;;;;;;10.60;2.07;;;;;;;;;;6213142;23;20175;-88
2022/02/22 03:36:25;;;;;;;10.03;1.97;;;;;;;;;;6157138;23;20198;-87
2022/02/22 03:39:31;;;;;;;10.37;2.73;;;;;;;;;;6197057;23;20163;-87
2022/02/22 03:42:40;;;;;;;9.17;2.03;;;;;;;;;;6196355;23;20243;-87
2022/02/22 03:45:47;;;;;;;8.80;1.90;;;;;;;;;;6196686;23;20184;-88
2022/02/22 03:48:52;;;;;;;10.23;1.83;;;;;;;;;;6179819;23;20243;-89
2022/02/22 03:51:57;;;;;;;7.07;1.80;;;;;;;;;;6196026;23;20191;-88
2022/02/22 03:55:04;;;;;;;8.07;1.70;;;;;;;;;;6196597;23;20207;-89
2022/02/22 03:58:09;;;;;;;10.70;1.60;;;;;;;;;;6178761;23;20168;-88
2022/02/22 04:01:15;;;;;;;6.53;1.87;;;;;;;;;;6195058;23;20250;-89
2022/02/22 04:04:20;;;;;;;5.50;1.93;;;;;;;;;;6197610;23;20143;-89
2022/02/22 04:07:25;;;;;;;9.70;2.00;;;;;;;;;;6196387;23;20587;-88
2022/02/22 04:10:32;;;;;;;7.23;2.10;;;;;;;;;;6195414;23;20771;-89
2022/02/22 04:13:37;;;;;;;6.77;1.63;;;;;;;;;;6196113;23;20180;-89
2022/02/22 04:16:42;;;;;;;5.30;1.80;;;;;;;;;;6179126;23;20184;-89
2022/02/22 04:19:48;;;;;;;4.00;1.60;;;;;;;;;;6194638;23;20241;-88
2022/02/22 04:22:53;;;;;;;7.27;2.20;;;;;;;;;;6178398;23;20627;-88
2022/02/22 04:25:59;;;;;;;6.53;1.57;;;;;;;;;;6194480;23;20180;-89
2022/02/22 04:29:04;;;;;;;8.30;1.53;;;;;;;;;;6195508;23;20175;-87
2022/02/22 04:32:09;;;;;;;6.27;1.60;;;;;;;;;;6196588;23;20219;-89
2022/02/22 04:35:15;;;;;;;6.57;1.80;;;;;;;;;;6193718;23;20179;-88
2022/02/22 04:38:20;;;;;;;7.10;1.57;;;;;;;;;;6196479;23;20164;-88
2022/02/22 04:41:26;;;;;;;12.30;1.80;;;;;;;;;;6196748;23;20170;-88
2022/02/22 04:44:31;;;;;;;5.23;1.53;;;;;;;;;;6196512;23;20188;-88
2022/02/22 04:47:36;;;;;;;6.47;1.60;;;;;;;;;;6195581;23;20199;-88
2022/02/22 04:50:41;;;;;;;5.90;1.80;;;;;;;;;;6196987;23;20164;-88
2022/02/22 04:53:47;;;;;;;4.50;1.40;;;;;;;;;;6196476;23;20168;-89
2022/02/22 04:56:53;;;;;;;6.20;1.53;;;;;;;;;;6196636;23;20191;-89
2022/02/22 04:59:58;;;;;;;4.17;1.53;;;;;;;;;;6195377;23;20175;-88
2022/02/22 05:03:03;;;;;;;7.97;2.20;;;;;;;;;;6195644;23;20176;-88
2022/02/22 05:06:08;;;;;;;4.37;1.23;;;;;;;;;;6194912;23;20239;-88
2022/02/22 05:09:13;;;;;;;11.43;2.00;;;;;;;;;;6193907;23;20172;-88
2022/02/22 05:12:20;;;;;;;10.57;1.87;;;;;;;;;;6196052;23;20164;-88
2022/02/22 05:15:25;;;;;;;6.83;1.50;;;;;;;;;;6194401;23;20167;-88
2022/02/22 05:18:31;;;;;;;11.70;2.00;;;;;;;;;;6196124;23;20195;-88
2022/02/22 05:21:36;;;;;;;10.73;1.63;;;;;;;;;;6179757;23;20179;-88
2022/02/22 05:24:41;;;;;;;10.77;2.10;;;;;;;;;;6195607;23;20172;-88
2022/02/22 05:27:48;;;;;;;7.77;1.57;;;;;;;;;;6177442;23;20719;-87
2022/02/22 05:30:53;;;;;;;5.93;1.80;;;;;;;;;;6194734;23;20172;-88
2022/02/22 05:33:59;;;;;;;9.20;1.53;;;;;;;;;;6195125;23;20248;-89
2022/02/22 05:37:04;;;;;;;9.67;1.63;;;;;;;;;;6165804;23;20196;-88
2022/02/22 05:40:09;;;;;;;7.57;1.60;;;;;;;;;;6165997;23;20242;-89
2022/02/22 05:43:15;;;;;;;7.13;1.90;;;;;;;;;;6165449;23;20165;-90
2022/02/22 05:46:21;;;;;;;11.90;2.67;;;;;;;;;;6167034;23;20206;-89
2022/02/22 05:49:26;;;;;;;8.43;1.70;;;;;;;;;;6168325;23;20219;-88
2022/02/22 05:52:31;;;;;;;11.17;2.10;;;;;;;;;;6168098;23;20197;-88
2022/02/22 05:55:37;;;;;;;11.00;1.70;;;;;;;;;;6167273;23;20172;-89
2022/02/22 05:58:44;;;;;;;13.20;1.90;;;;;;;;;;6165751;23;20172;-89
2022/02/22 06:01:50;;;;;;;11.87;2.50;;;;;;;;;;6164979;23;20785;-87
2022/02/22 06:04:55;;;;;;;10.00;1.60;;;;;;;;;;6165393;23;20172;-89
2022/02/22 06:08:00;;;;;;;10.20;2.53;;;;;;;;;;6164984;23;20200;-88
2022/02/22 06:11:05;;;;;;;7.97;1.50;;;;;;;;;;6165544;23;20168;-89
2022/02/22 06:14:12;;;;;;;9.13;1.40;;;;;;;;;;6169009;23;20172;-89
2022/02/22 06:17:17;;;;;;;7.87;2.33;;;;;;;;;;6164517;23;20252;-90
2022/02/22 06:20:27;;;;;;;10.53;1.90;;;;;;;;;;6165974;23;20152;-91
2022/02/22 06:23:32;;;;;;;5.13;1.67;;;;;;;;;;6167002;23;20644;-90
2022/02/22 06:26:37;;;;;;;8.00;1.87;;;;;;;;;;6166694;23;20168;-90
2022/02/22 06:29:43;;;;;;;8.13;1.47;;;;;;;;;;6167377;23;20251;-90
2022/02/22 06:32:49;;;;;;;7.03;1.83;;;;;;;;;;6167654;23;20172;-90
2022/02/22 06:35:55;;;;;;;10.57;2.13;;;;;;;;;;6166346;23;20176;-89
2022/02/22 06:39:05;;;;;;;9.60;1.70;;;;;;;;;;6196081;23;20173;-89
2022/02/22 06:42:10;;;;;;;14.83;2.77;;;;;;;;;;6198999;23;20168;-89
2022/02/22 06:45:16;;;;;;;8.07;1.70;;;;;;;;;;6178265;23;20167;-90
2022/02/22 06:48:21;;;;;;;10.47;1.87;;;;;;;;;;6198812;23;20303;-87
2022/02/22 06:51:26;;;;;;;7.93;1.83;;;;;;;;;;6195901;23;20176;-89
2022/02/22 06:54:31;;;;;;;11.47;1.80;;;;;;;;;;6196699;23;20172;-90
2022/02/22 06:57:36;;;;;;;14.97;2.07;;;;;;;;;;6198957;23;20175;-90
2022/02/22 07:00:45;;;;;;;11.27;2.33;;;;;;;;;;6197910;23;20184;-87
2022/02/22 07:03:50;;;;;;;14.67;2.10;;;;;;;;;;6199004;23;20490;-89
2022/02/22 07:06:55;;;;;;;17.13;3.07;;;;;;;;;;6166444;23;20195;-91
2022/02/22 07:10:00;;;;;;;12.63;1.70;;;;;;;;;;6196905;23;20216;-90
2022/02/22 07:13:05;;;;;;;12.67;2.30;;;;;;;;;;6199372;23;20152;-90
2022/02/22 07:16:14;;;;;;;13.60;2.03;;;;;;;;;;6198510;23;20168;-89
2022/02/22 07:19:18;;;;;;;12.20;1.90;;;;;;;;;;6200183;23;20515;-90
2022/02/22 07:22:23;;;;;;;9.57;2.03;;;;;;;;;;6200885;23;20616;-90
2022/02/22 07:25:29;;;;;;;13.57;2.23;;;;;;;;;;6181792;23;20678;-90
2022/02/22 07:28:34;;;;;;;15.10;1.90;;;;;;;;;;6197892;23;20304;-90
2022/02/22 07:31:40;;;;;;;16.60;2.27;;;;;;;;;;6201098;23;20180;-89
2022/02/22 07:34:45;;;;;;;10.53;2.20;;;;;;;;;;6199141;23;20890;-90
2022/02/22 07:37:52;;;;;;;13.67;2.50;;;;;;;;;;6186955;23;20192;-91
2022/02/22 07:40:57;;;;;;;12.30;1.63;;;;;;;;;;6150821;23;20632;-91
2022/02/22 07:44:06;;;;;;;22.63;2.53;;;;;;;;;;6168327;23;20245;-89
2022/02/22 07:47:13;;;;;;;9.83;2.03;;;;;;;;;;6169473;23;20152;-89
2022/02/22 07:50:18;;;;;;;14.03;2.00;;;;;;;;;;6169956;23;20175;-89
2022/02/22 07:53:23;;;;;;;20.90;3.53;;;;;;;;;;6171488;23;20248;-90
2022/02/22 07:56:31;;;;;;;12.00;1.90;;;;;;;;;;6169313;23;20172;-90
2022/02/22 07:59:36;;;;;;;14.23;2.13;;;;;;;;;;6170596;23;20173;-90
2022/02/22 08:02:43;;;;;;;15.63;2.03;;;;;;;;;;6166582;23;20168;-89
2022/02/22 08:05:48;;;;;;;16.10;2.50;;;;;;;;;;6170372;23;20193;-88
2022/02/22 08:08:53;;;;;;;12.63;2.00;;;;;;;;;;6169393;23;20200;-89
2022/02/22 08:11:57;;;;;;;10.93;2.47;;;;;;;;;;6170373;23;20619;-88
2022/02/22 08:15:10;;;;;;;13.83;2.40;;;;;;;;;;6170316;23;20635;-90
2022/02/22 08:18:16;;;;;;;11.70;2.20;;;;;;;;;;6169494;23;20596;-89
2022/02/22 08:21:21;;;;;;;11.33;1.90;;;;;;;;;;6172263;23;20160;-90
2022/02/22 08:24:26;;;;;;;17.77;2.23;;;;;;;;;;6170573;23;20189;-89
2022/02/22 08:27:36;;;;;;;15.80;2.63;;;;;;;;;;6171895;23;20211;-91
2022/02/22 08:30:41;;;;;;;14.40;2.30;;;;;;;;;;6170363;23;20217;-89
2022/02/22 08:33:49;;;;;;;9.80;2.30;;;;;;;;;;6170081;23;20152;-86
2022/02/22 08:36:54;;;;;;;15.57;2.60;;;;;;;;;;6171272;23;20196;-89
2022/02/22 08:40:00;;;;;;;9.23;1.50;;;;;;;;;;6171274;23;20177;-88
2022/02/22 08:43:05;;;;;;;22.67;2.23;;;;;;;;;;6188150;23;20168;-88
2022/02/22 08:46:11;;;;;;;13.33;2.53;;;;;;;;;;6173765;23;20173;-90
2022/02/22 08:49:17;;;;;;;12.43;2.10;;;;;;;;;;6174820;23;20216;-90
2022/02/22 08:52:22;;;;;;;13.40;2.20;;;;;;;;;;6172665;23;20173;-89
2022/02/22 08:55:29;;;;;;;16.23;2.33;;;;;;;;;;6174182;23;20176;-89
2022/02/22 08:58:35;;;;;;;16.13;2.43;;;;;;;;;;6174118;23;20169;-91
2022/02/22 09:01:40;;;;;;;13.83;2.07;;;;;;;;;;6172177;23;20164;-90
2022/02/22 23:52:35;;;;;;;11.57;2.13;;;;;;;;;;6164515;23;20196;-86
2022/02/22 23:55:40;;;;;;;10.00;1.80;;;;;;;;;;6191311;23;20175;-87
2022/02/22 23:58:47;;;;;;;9.33;2.13;;;;;;;;;;6191848;23;20175;-86
